Thompsons Station, Tennessee
Current Conditions -  °F | °C
As of 12:55 AM on Saturday 01 Nov 2014 (Local Time) from KMRC Reporting Station
Overcast Overcast  
Wind Chill: 32°   Ceiling: 4600
Heat Index: 39°   Visibility: 10mi
Dew Point: 25°   Wind: 12mph
Humidity: 56%   Direction: 330°NNW
Pressure: 30.15"   Gusts: NA
Location:  35.8°N, 86.91°W
Report Text: KMRC 010555Z AUTO 33010KT 290V360 10SM OVC046 04/M04 A3015 RMK
Loading
Personal Weather Stations






























Interactive Weather Map
Tropical Storm Tracking
New forecast layout! Learn more

10-Day Weather Forecast

Advertisements
Track Severe Weather on mobile